sensor_id;sensor_type;location;lat;lon;timestamp;P1;durP1;ratioP1;P2;durP2;ratioP2
7169;SDS011;3626;42.656;23.312;2023-07-16T00:00:00;10.93;;;7.30;;
7169;SDS011;3626;42.656;23.312;2023-07-16T00:00:06;11.35;;;7.30;;
7169;SDS011;3626;42.656;23.312;2023-07-16T00:00:14;11.33;;;7.30;;
7169;SDS011;3626;42.656;23.312;2023-07-16T00:00:20;11.20;;;7.20;;
7169;SDS011;3626;42.656;23.312;2023-07-16T00:00:26;11.25;;;7.20;;
7169;SDS011;3626;42.656;23.312;2023-07-16T00:00:32;11.20;;;7.30;;
7169;SDS011;3626;42.656;23.312;2023-07-16T00:00:37;11.15;;;7.47;;
7169;SDS011;3626;42.656;23.312;2023-07-16T00:00:43;11.20;;;7.50;;
7169;SDS011;3626;42.656;23.312;2023-07-16T00:00:49;10.95;;;7.50;;
7169;SDS011;3626;42.656;23.312;2023-07-16T00:00:55;10.70;;;7.50;;
7169;SDS011;3626;42.656;23.312;2023-07-16T00:01:01;10.18;;;7.40;;
7169;SDS011;3626;42.656;23.312;2023-07-16T00:01:07;10.47;;;7.33;;
7169;SDS011;3626;42.656;23.312;2023-07-16T00:01:13;10.20;;;7.20;;
7169;SDS011;3626;42.656;23.312;2023-07-16T00:01:19;10.40;;;7.32;;
7169;SDS011;3626;42.656;23.312;2023-07-16T00:01:25;10.55;;;7.40;;
7169;SDS011;3626;42.656;23.312;2023-07-16T00:01:30;10.80;;;7.53;;
7169;SDS011;3626;42.656;23.312;2023-07-16T00:01:36;10.88;;;7.53;;
7169;SDS011;3626;42.656;23.312;2023-07-16T00:01:42;10.85;;;7.47;;
7169;SDS011;3626;42.656;23.312;2023-07-16T00:01:47;10.83;;;7.53;;
7169;SDS011;3626;42.656;23.312;2023-07-16T00:01:53;12.73;;;7.78;;
7169;SDS011;3626;42.656;23.312;2023-07-16T00:01:59;14.23;;;7.95;;
7169;SDS011;3626;42.656;23.312;2023-07-16T00:02:05;14.43;;;8.00;;
7169;SDS011;3626;42.656;23.312;2023-07-16T00:02:11;14.23;;;8.10;;
7169;SDS011;3626;42.656;23.312;2023-07-16T00:02:16;14.27;;;8.02;;
7169;SDS011;3626;42.656;23.312;2023-07-16T00:02:22;15.77;;;8.00;;
7169;SDS011;3626;42.656;23.312;2023-07-16T00:02:28;16.98;;;8.02;;
7169;SDS011;3626;42.656;23.312;2023-07-16T00:02:34;17.60;;;8.20;;
7169;SDS011;3626;42.656;23.312;2023-07-16T00:02:39;17.90;;;8.30;;
7169;SDS011;3626;42.656;23.312;2023-07-16T00:02:45;18.02;;;8.40;;
7169;SDS011;3626;42.656;23.312;2023-07-16T00:02:51;17.65;;;8.20;;
7169;SDS011;3626;42.656;23.312;2023-07-16T00:02:57;17.00;;;8.52;;
7169;SDS011;3626;42.656;23.312;2023-07-16T00:03:04;17.38;;;8.70;;
7169;SDS011;3626;42.656;23.312;2023-07-16T00:03:10;17.35;;;8.70;;
7169;SDS011;3626;42.656;23.312;2023-07-16T00:03:16;17.13;;;8.70;;
7169;SDS011;3626;42.656;23.312;2023-07-16T00:03:21;16.35;;;8.70;;
7169;SDS011;3626;42.656;23.312;2023-07-16T00:03:27;14.38;;;8.65;;
7169;SDS011;3626;42.656;23.312;2023-07-16T00:03:33;14.32;;;8.50;;
7169;SDS011;3626;42.656;23.312;2023-07-16T00:03:38;14.80;;;8.40;;
7169;SDS011;3626;42.656;23.312;2023-07-16T00:03:44;15.25;;;8.40;;
7169;SDS011;3626;42.656;23.312;2023-07-16T00:03:50;15.48;;;8.68;;
7169;SDS011;3626;42.656;23.312;2023-07-16T00:03:56;15.33;;;8.63;;
7169;SDS011;3626;42.656;23.312;2023-07-16T00:04:01;14.13;;;8.20;;
7169;SDS011;3626;42.656;23.312;2023-07-16T00:04:07;14.13;;;8.20;;
7169;SDS011;3626;42.656;23.312;2023-07-16T00:04:13;15.20;;;8.37;;
7169;SDS011;3626;42.656;23.312;2023-07-16T00:04:18;15.93;;;8.45;;
7169;SDS011;3626;42.656;23.312;2023-07-16T00:04:24;16.40;;;8.43;;
7169;SDS011;3626;42.656;23.312;2023-07-16T00:04:30;17.02;;;8.50;;
7169;SDS011;3626;42.656;23.312;2023-07-16T00:04:35;16.20;;;8.50;;
7169;SDS011;3626;42.656;23.312;2023-07-16T00:04:42;16.44;;;8.52;;
7169;SDS011;3626;42.656;23.312;2023-07-16T00:04:48;17.58;;;8.60;;
7169;SDS011;3626;42.656;23.312;2023-07-16T00:04:54;17.30;;;8.43;;
7169;SDS011;3626;42.656;23.312;2023-07-16T00:05:00;17.40;;;8.50;;
7169;SDS011;3626;42.656;23.312;2023-07-16T00:05:06;17.77;;;8.50;;
7169;SDS011;3626;42.656;23.312;2023-07-16T00:05:12;17.63;;;8.37;;
7169;SDS011;3626;42.656;23.312;2023-07-16T00:05:18;17.53;;;8.50;;
7169;SDS011;3626;42.656;23.312;2023-07-16T00:05:23;17.33;;;8.45;;
7169;SDS011;3626;42.656;23.312;2023-07-16T00:05:29;17.13;;;8.40;;
7169;SDS011;3626;42.656;23.312;2023-07-16T00:05:36;17.90;;;8.43;;
7169;SDS011;3626;42.656;23.312;2023-07-16T00:05:42;16.90;;;8.40;;
7169;SDS011;3626;42.656;23.312;2023-07-16T00:05:49;16.00;;;8.18;;
7169;SDS011;3626;42.656;23.312;2023-07-16T00:05:55;17.33;;;8.20;;
7169;SDS011;3626;42.656;23.312;2023-07-16T00:06:01;17.37;;;8.20;;
7169;SDS011;3626;42.656;23.312;2023-07-16T00:06:07;16.83;;;8.20;;
7169;SDS011;3626;42.656;23.312;2023-07-16T00:06:12;17.77;;;8.38;;
7169;SDS011;3626;42.656;23.312;2023-07-16T00:06:18;17.30;;;8.25;;
7169;SDS011;3626;42.656;23.312;2023-07-16T00:06:24;17.20;;;8.30;;
7169;SDS011;3626;42.656;23.312;2023-07-16T00:06:30;16.70;;;8.37;;
7169;SDS011;3626;42.656;23.312;2023-07-16T00:06:36;16.17;;;8.35;;
7169;SDS011;3626;42.656;23.312;2023-07-16T00:06:42;16.50;;;8.33;;
7169;SDS011;3626;42.656;23.312;2023-07-16T00:06:47;16.67;;;8.48;;
7169;SDS011;3626;42.656;23.312;2023-07-16T00:06:53;17.50;;;8.40;;
7169;SDS011;3626;42.656;23.312;2023-07-16T00:06:59;19.47;;;8.40;;
7169;SDS011;3626;42.656;23.312;2023-07-16T00:07:05;19.90;;;8.23;;
7169;SDS011;3626;42.656;23.312;2023-07-16T00:07:11;18.83;;;8.37;;
7169;SDS011;3626;42.656;23.312;2023-07-16T00:07:17;19.92;;;8.25;;
7169;SDS011;3626;42.656;23.312;2023-07-16T00:07:24;22.03;;;8.35;;
7169;SDS011;3626;42.656;23.312;2023-07-16T00:07:30;21.70;;;8.23;;
7169;SDS011;3626;42.656;23.312;2023-07-16T00:07:36;21.38;;;8.20;;
7169;SDS011;3626;42.656;23.312;2023-07-16T00:07:41;20.88;;;8.23;;
7169;SDS011;3626;42.656;23.312;2023-07-16T00:07:47;20.90;;;8.30;;
7169;SDS011;3626;42.656;23.312;2023-07-16T00:07:53;19.23;;;8.40;;
7169;SDS011;3626;42.656;23.312;2023-07-16T00:07:59;17.00;;;8.43;;
7169;SDS011;3626;42.656;23.312;2023-07-16T00:08:06;16.80;;;8.48;;
7169;SDS011;3626;42.656;23.312;2023-07-16T00:08:12;16.20;;;8.40;;
7169;SDS011;3626;42.656;23.312;2023-07-16T00:08:17;14.68;;;8.50;;
7169;SDS011;3626;42.656;23.312;2023-07-16T00:08:23;13.13;;;8.33;;
7169;SDS011;3626;42.656;23.312;2023-07-16T00:08:29;13.30;;;8.38;;
7169;SDS011;3626;42.656;23.312;2023-07-16T00:08:34;13.73;;;8.52;;
7169;SDS011;3626;42.656;23.312;2023-07-16T00:08:40;15.70;;;8.97;;
7169;SDS011;3626;42.656;23.312;2023-07-16T00:08:46;16.15;;;9.00;;
7169;SDS011;3626;42.656;23.312;2023-07-16T00:08:51;16.20;;;8.90;;
7169;SDS011;3626;42.656;23.312;2023-07-16T00:08:57;16.17;;;8.90;;
7169;SDS011;3626;42.656;23.312;2023-07-16T00:09:04;15.70;;;9.00;;
7169;SDS011;3626;42.656;23.312;2023-07-16T00:09:09;15.82;;;9.00;;
7169;SDS011;3626;42.656;23.312;2023-07-16T00:09:15;16.13;;;8.97;;
7169;SDS011;3626;42.656;23.312;2023-07-16T00:09:21;15.90;;;8.80;;
7169;SDS011;3626;42.656;23.312;2023-07-16T00:09:27;16.23;;;9.02;;
7169;SDS011;3626;42.656;23.312;2023-07-16T00:09:33;15.93;;;9.00;;
7169;SDS011;3626;42.656;23.312;2023-07-16T00:09:38;15.32;;;8.65;;
7169;SDS011;3626;42.656;23.312;2023-07-16T00:09:44;13.80;;;8.33;;
7169;SDS011;3626;42.656;23.312;2023-07-16T00:09:50;13.95;;;8.48;;
7169;SDS011;3626;42.656;23.312;2023-07-16T00:09:56;13.82;;;8.40;;
7169;SDS011;3626;42.656;23.312;2023-07-16T00:10:01;13.97;;;8.37;;
7169;SDS011;3626;42.656;23.312;2023-07-16T00:10:08;13.80;;;8.40;;
7169;SDS011;3626;42.656;23.312;2023-07-16T00:10:15;15.23;;;8.53;;
7169;SDS011;3626;42.656;23.312;2023-07-16T00:10:20;15.38;;;8.55;;
7169;SDS011;3626;42.656;23.312;2023-07-16T00:10:26;15.13;;;8.47;;
7169;SDS011;3626;42.656;23.312;2023-07-16T00:10:34;15.32;;;8.40;;
7169;SDS011;3626;42.656;23.312;2023-07-16T00:10:40;15.20;;;8.50;;
7169;SDS011;3626;42.656;23.312;2023-07-16T00:10:46;14.90;;;8.40;;
7169;SDS011;3626;42.656;23.312;2023-07-16T00:10:51;14.90;;;8.43;;
7169;SDS011;3626;42.656;23.312;2023-07-16T00:10:57;14.80;;;8.45;;
7169;SDS011;3626;42.656;23.312;2023-07-16T00:11:03;14.82;;;8.27;;
7169;SDS011;3626;42.656;23.312;2023-07-16T00:11:09;16.20;;;8.10;;
7169;SDS011;3626;42.656;23.312;2023-07-16T00:11:14;15.10;;;8.20;;
7169;SDS011;3626;42.656;23.312;2023-07-16T00:11:21;14.75;;;8.30;;
7169;SDS011;3626;42.656;23.312;2023-07-16T00:11:27;14.50;;;8.30;;
7169;SDS011;3626;42.656;23.312;2023-07-16T00:11:35;14.45;;;8.30;;
7169;SDS011;3626;42.656;23.312;2023-07-16T00:11:41;14.77;;;8.32;;
7169;SDS011;3626;42.656;23.312;2023-07-16T00:11:47;15.35;;;8.20;;
7169;SDS011;3626;42.656;23.312;2023-07-16T00:11:53;15.68;;;8.13;;
7169;SDS011;3626;42.656;23.312;2023-07-16T00:12:00;15.83;;;8.10;;
7169;SDS011;3626;42.656;23.312;2023-07-16T00:12:06;13.93;;;8.10;;
7169;SDS011;3626;42.656;23.312;2023-07-16T00:12:12;13.63;;;8.00;;
7169;SDS011;3626;42.656;23.312;2023-07-16T00:12:17;12.90;;;7.70;;
7169;SDS011;3626;42.656;23.312;2023-07-16T00:12:23;13.02;;;7.63;;
7169;SDS011;3626;42.656;23.312;2023-07-16T00:12:29;13.03;;;7.60;;
7169;SDS011;3626;42.656;23.312;2023-07-16T00:12:34;13.77;;;7.55;;
7169;SDS011;3626;42.656;23.312;2023-07-16T00:12:40;13.25;;;7.50;;
7169;SDS011;3626;42.656;23.312;2023-07-16T00:12:46;12.80;;;7.70;;
7169;SDS011;3626;42.656;23.312;2023-07-16T00:12:52;12.04;;;7.70;;
7169;SDS011;3626;42.656;23.312;2023-07-16T00:12:58;11.63;;;7.78;;
7169;SDS011;3626;42.656;23.312;2023-07-16T00:13:04;11.73;;;7.77;;
7169;SDS011;3626;42.656;23.312;2023-07-16T00:13:10;11.98;;;8.00;;
7169;SDS011;3626;42.656;23.312;2023-07-16T00:13:16;12.75;;;8.15;;
7169;SDS011;3626;42.656;23.312;2023-07-16T00:13:22;12.67;;;8.20;;
7169;SDS011;3626;42.656;23.312;2023-07-16T00:13:27;13.05;;;8.38;;
7169;SDS011;3626;42.656;23.312;2023-07-16T00:13:34;12.97;;;8.63;;
7169;SDS011;3626;42.656;23.312;2023-07-16T00:13:40;13.15;;;8.50;;
7169;SDS011;3626;42.656;23.312;2023-07-16T00:13:51;14.10;;;8.37;;
7169;SDS011;3626;42.656;23.312;2023-07-16T00:13:56;14.68;;;8.60;;
7169;SDS011;3626;42.656;23.312;2023-07-16T00:14:02;14.63;;;8.68;;
7169;SDS011;3626;42.656;23.312;2023-07-16T00:14:09;14.57;;;8.50;;
7169;SDS011;3626;42.656;23.312;2023-07-16T00:14:15;14.48;;;8.40;;
7169;SDS011;3626;42.656;23.312;2023-07-16T00:14:21;14.80;;;8.43;;
7169;SDS011;3626;42.656;23.312;2023-07-16T00:14:26;14.43;;;8.30;;
7169;SDS011;3626;42.656;23.312;2023-07-16T00:14:32;13.75;;;7.95;;
7169;SDS011;3626;42.656;23.312;2023-07-16T00:14:38;14.20;;;8.00;;
7169;SDS011;3626;42.656;23.312;2023-07-16T00:14:44;13.27;;;7.90;;
7169;SDS011;3626;42.656;23.312;2023-07-16T00:14:49;12.23;;;7.78;;
7169;SDS011;3626;42.656;23.312;2023-07-16T00:14:56;11.63;;;7.45;;
7169;SDS011;3626;42.656;23.312;2023-07-16T00:15:02;12.93;;;7.70;;
7169;SDS011;3626;42.656;23.312;2023-07-16T00:15:08;13.42;;;7.64;;
7169;SDS011;3626;42.656;23.312;2023-07-16T00:15:14;12.57;;;7.50;;
7169;SDS011;3626;42.656;23.312;2023-07-16T00:15:20;12.73;;;7.35;;
7169;SDS011;3626;42.656;23.312;2023-07-16T00:15:27;13.10;;;7.20;;
7169;SDS011;3626;42.656;23.312;2023-07-16T00:15:33;13.05;;;7.35;;
7169;SDS011;3626;42.656;23.312;2023-07-16T00:15:38;12.63;;;7.45;;
7169;SDS011;3626;42.656;23.312;2023-07-16T00:15:44;12.93;;;7.70;;
7169;SDS011;3626;42.656;23.312;2023-07-16T00:15:50;13.52;;;8.00;;
7169;SDS011;3626;42.656;23.312;2023-07-16T00:15:56;13.63;;;8.00;;
7169;SDS011;3626;42.656;23.312;2023-07-16T00:16:01;12.75;;;7.75;;
7169;SDS011;3626;42.656;23.312;2023-07-16T00:16:07;12.15;;;7.65;;
7169;SDS011;3626;42.656;23.312;2023-07-16T00:16:13;12.73;;;7.83;;
7169;SDS011;3626;42.656;23.312;2023-07-16T00:16:19;12.70;;;7.90;;
7169;SDS011;3626;42.656;23.312;2023-07-16T00:16:24;11.57;;;7.90;;
7169;SDS011;3626;42.656;23.312;2023-07-16T00:16:30;11.63;;;7.73;;
7169;SDS011;3626;42.656;23.312;2023-07-16T00:16:36;11.55;;;7.60;;
7169;SDS011;3626;42.656;23.312;2023-07-16T00:16:41;11.38;;;7.40;;
7169;SDS011;3626;42.656;23.312;2023-07-16T00:16:47;10.77;;;7.07;;
7169;SDS011;3626;42.656;23.312;2023-07-16T00:16:53;10.50;;;6.90;;
7169;SDS011;3626;42.656;23.312;2023-07-16T00:16:59;10.30;;;6.90;;
7169;SDS011;3626;42.656;23.312;2023-07-16T00:17:04;10.05;;;7.00;;
7169;SDS011;3626;42.656;23.312;2023-07-16T00:17:10;9.67;;;6.87;;
7169;SDS011;3626;42.656;23.312;2023-07-16T00:17:16;9.52;;;6.80;;
7169;SDS011;3626;42.656;23.312;2023-07-16T00:17:22;10.00;;;6.90;;
7169;SDS011;3626;42.656;23.312;2023-07-16T00:17:28;9.82;;;6.85;;
7169;SDS011;3626;42.656;23.312;2023-07-16T00:17:34;9.95;;;7.03;;
7169;SDS011;3626;42.656;23.312;2023-07-16T00:17:39;10.18;;;7.10;;
7169;SDS011;3626;42.656;23.312;2023-07-16T00:17:45;10.40;;;7.00;;
7169;SDS011;3626;42.656;23.312;2023-07-16T00:17:52;10.76;;;7.14;;
7169;SDS011;3626;42.656;23.312;2023-07-16T00:17:58;11.13;;;7.20;;
7169;SDS011;3626;42.656;23.312;2023-07-16T00:18:03;12.13;;;7.40;;
7169;SDS011;3626;42.656;23.312;2023-07-16T00:18:10;12.60;;;7.60;;
7169;SDS011;3626;42.656;23.312;2023-07-16T00:18:16;12.43;;;7.53;;
7169;SDS011;3626;42.656;23.312;2023-07-16T00:18:22;12.45;;;7.50;;
7169;SDS011;3626;42.656;23.312;2023-07-16T00:18:28;12.70;;;7.63;;
7169;SDS011;3626;42.656;23.312;2023-07-16T00:18:34;13.15;;;7.57;;
7169;SDS011;3626;42.656;23.312;2023-07-16T00:18:41;13.45;;;7.50;;
7169;SDS011;3626;42.656;23.312;2023-07-16T00:18:46;14.00;;;7.68;;
7169;SDS011;3626;42.656;23.312;2023-07-16T00:18:52;15.63;;;7.72;;
7169;SDS011;3626;42.656;23.312;2023-07-16T00:18:58;15.65;;;7.72;;
7169;SDS011;3626;42.656;23.312;2023-07-16T00:19:04;15.00;;;7.68;;
7169;SDS011;3626;42.656;23.312;2023-07-16T00:19:10;15.00;;;7.63;;
7169;SDS011;3626;42.656;23.312;2023-07-16T00:19:16;15.00;;;7.80;;
7169;SDS011;3626;42.656;23.312;2023-07-16T00:19:22;15.82;;;7.80;;
7169;SDS011;3626;42.656;23.312;2023-07-16T00:19:28;15.77;;;7.70;;
7169;SDS011;3626;42.656;23.312;2023-07-16T00:19:34;15.00;;;7.70;;
7169;SDS011;3626;42.656;23.312;2023-07-16T00:19:40;14.60;;;7.82;;
7169;SDS011;3626;42.656;23.312;2023-07-16T00:19:46;14.32;;;8.00;;
7169;SDS011;3626;42.656;23.312;2023-07-16T00:19:51;12.57;;;7.97;;
7169;SDS011;3626;42.656;23.312;2023-07-16T00:19:57;12.47;;;8.00;;
7169;SDS011;3626;42.656;23.312;2023-07-16T00:20:03;12.32;;;7.93;;
7169;SDS011;3626;42.656;23.312;2023-07-16T00:20:11;12.15;;;7.90;;
7169;SDS011;3626;42.656;23.312;2023-07-16T00:20:17;13.00;;;7.90;;
7169;SDS011;3626;42.656;23.312;2023-07-16T00:20:22;13.03;;;8.00;;
7169;SDS011;3626;42.656;23.312;2023-07-16T00:20:29;13.33;;;8.20;;
7169;SDS011;3626;42.656;23.312;2023-07-16T00:20:34;13.73;;;8.35;;
7169;SDS011;3626;42.656;23.312;2023-07-16T00:20:40;14.00;;;8.27;;
7169;SDS011;3626;42.656;23.312;2023-07-16T00:20:46;13.80;;;8.20;;
7169;SDS011;3626;42.656;23.312;2023-07-16T00:20:51;15.48;;;8.45;;
7169;SDS011;3626;42.656;23.312;2023-07-16T00:20:57;16.10;;;8.45;;
7169;SDS011;3626;42.656;23.312;2023-07-16T00:21:03;16.42;;;8.57;;
7169;SDS011;3626;42.656;23.312;2023-07-16T00:21:09;16.63;;;8.63;;
7169;SDS011;3626;42.656;23.312;2023-07-16T00:21:15;17.90;;;8.73;;
7169;SDS011;3626;42.656;23.312;2023-07-16T00:21:21;16.80;;;8.83;;
7169;SDS011;3626;42.656;23.312;2023-07-16T00:21:27;16.73;;;8.90;;
7169;SDS011;3626;42.656;23.312;2023-07-16T00:21:33;16.67;;;8.90;;
7169;SDS011;3626;42.656;23.312;2023-07-16T00:21:38;18.00;;;9.07;;
7169;SDS011;3626;42.656;23.312;2023-07-16T00:21:44;18.38;;;9.20;;
7169;SDS011;3626;42.656;23.312;2023-07-16T00:21:50;17.77;;;9.00;;
7169;SDS011;3626;42.656;23.312;2023-07-16T00:21:55;16.58;;;9.02;;
7169;SDS011;3626;42.656;23.312;2023-07-16T00:22:01;16.58;;;9.18;;
7169;SDS011;3626;42.656;23.312;2023-07-16T00:22:07;17.63;;;9.38;;
7169;SDS011;3626;42.656;23.312;2023-07-16T00:22:13;16.33;;;9.40;;
7169;SDS011;3626;42.656;23.312;2023-07-16T00:22:18;16.10;;;9.37;;
7169;SDS011;3626;42.656;23.312;2023-07-16T00:22:24;16.10;;;9.40;;
7169;SDS011;3626;42.656;23.312;2023-07-16T00:22:30;16.58;;;9.30;;
7169;SDS011;3626;42.656;23.312;2023-07-16T00:22:36;15.60;;;9.17;;
7169;SDS011;3626;42.656;23.312;2023-07-16T00:22:43;14.70;;;9.00;;
7169;SDS011;3626;42.656;23.312;2023-07-16T00:22:49;16.58;;;9.10;;
7169;SDS011;3626;42.656;23.312;2023-07-16T00:22:55;17.52;;;9.07;;
7169;SDS011;3626;42.656;23.312;2023-07-16T00:23:02;17.60;;;9.12;;
7169;SDS011;3626;42.656;23.312;2023-07-16T00:23:08;16.70;;;9.07;;
7169;SDS011;3626;42.656;23.312;2023-07-16T00:23:13;16.77;;;8.98;;
7169;SDS011;3626;42.656;23.312;2023-07-16T00:23:19;16.90;;;8.90;;
7169;SDS011;3626;42.656;23.312;2023-07-16T00:23:25;16.87;;;8.90;;
7169;SDS011;3626;42.656;23.312;2023-07-16T00:23:30;16.40;;;8.90;;
7169;SDS011;3626;42.656;23.312;2023-07-16T00:23:36;16.63;;;9.02;;
7169;SDS011;3626;42.656;23.312;2023-07-16T00:23:42;16.93;;;9.40;;
7169;SDS011;3626;42.656;23.312;2023-07-16T00:23:47;15.98;;;9.50;;
7169;SDS011;3626;42.656;23.312;2023-07-16T00:23:53;13.63;;;9.35;;
7169;SDS011;3626;42.656;23.312;2023-07-16T00:24:00;13.07;;;9.13;;
7169;SDS011;3626;42.656;23.312;2023-07-16T00:24:06;12.93;;;9.05;;
7169;SDS011;3626;42.656;23.312;2023-07-16T00:24:12;12.70;;;9.00;;
7169;SDS011;3626;42.656;23.312;2023-07-16T00:24:17;12.57;;;9.10;;
7169;SDS011;3626;42.656;23.312;2023-07-16T00:24:23;12.15;;;9.10;;
7169;SDS011;3626;42.656;23.312;2023-07-16T00:24:29;12.17;;;9.13;;
7169;SDS011;3626;42.656;23.312;2023-07-16T00:24:35;12.52;;;9.23;;
7169;SDS011;3626;42.656;23.312;2023-07-16T00:24:41;12.80;;;8.73;;
7169;SDS011;3626;42.656;23.312;2023-07-16T00:24:47;13.27;;;8.63;;
7169;SDS011;3626;42.656;23.312;2023-07-16T00:24:53;13.50;;;8.63;;
7169;SDS011;3626;42.656;23.312;2023-07-16T00:24:58;13.93;;;8.75;;
7169;SDS011;3626;42.656;23.312;2023-07-16T00:25:04;14.03;;;8.73;;
7169;SDS011;3626;42.656;23.312;2023-07-16T00:25:11;14.48;;;8.98;;
7169;SDS011;3626;42.656;23.312;2023-07-16T00:25:17;14.70;;;9.07;;
7169;SDS011;3626;42.656;23.312;2023-07-16T00:25:23;14.90;;;9.00;;
7169;SDS011;3626;42.656;23.312;2023-07-16T00:25:28;15.93;;;9.02;;
7169;SDS011;3626;42.656;23.312;2023-07-16T00:25:34;15.95;;;9.02;;
7169;SDS011;3626;42.656;23.312;2023-07-16T00:25:40;15.80;;;9.27;;
7169;SDS011;3626;42.656;23.312;2023-07-16T00:25:46;15.15;;;9.43;;
7169;SDS011;3626;42.656;23.312;2023-07-16T00:25:51;14.98;;;9.70;;
7169;SDS011;3626;42.656;23.312;2023-07-16T00:25:57;14.80;;;9.77;;
7169;SDS011;3626;42.656;23.312;2023-07-16T00:26:03;14.55;;;9.70;;
7169;SDS011;3626;42.656;23.312;2023-07-16T00:26:08;14.50;;;9.80;;
7169;SDS011;3626;42.656;23.312;2023-07-16T00:26:14;14.43;;;9.80;;
7169;SDS011;3626;42.656;23.312;2023-07-16T00:26:22;14.50;;;9.87;;
7169;SDS011;3626;42.656;23.312;2023-07-16T00:26:28;13.16;;;9.78;;
7169;SDS011;3626;42.656;23.312;2023-07-16T00:26:34;12.40;;;9.60;;
7169;SDS011;3626;42.656;23.312;2023-07-16T00:26:40;13.10;;;9.50;;
7169;SDS011;3626;42.656;23.312;2023-07-16T00:26:45;13.40;;;9.43;;
7169;SDS011;3626;42.656;23.312;2023-07-16T00:26:51;14.75;;;9.40;;
7169;SDS011;3626;42.656;23.312;2023-07-16T00:26:57;15.27;;;9.55;;
7169;SDS011;3626;42.656;23.312;2023-07-16T00:27:03;15.68;;;9.60;;
7169;SDS011;3626;42.656;23.312;2023-07-16T00:27:09;15.63;;;9.55;;
7169;SDS011;3626;42.656;23.312;2023-07-16T00:27:15;15.52;;;9.40;;
7169;SDS011;3626;42.656;23.312;2023-07-16T00:27:21;15.82;;;9.55;;
7169;SDS011;3626;42.656;23.312;2023-07-16T00:27:26;16.70;;;9.60;;
7169;SDS011;3626;42.656;23.312;2023-07-16T00:27:32;17.10;;;9.68;;
7169;SDS011;3626;42.656;23.312;2023-07-16T00:27:38;16.38;;;9.65;;
7169;SDS011;3626;42.656;23.312;2023-07-16T00:27:43;16.03;;;9.70;;
7169;SDS011;3626;42.656;23.312;2023-07-16T00:27:49;14.98;;;9.60;;
7169;SDS011;3626;42.656;23.312;2023-07-16T00:27:55;14.38;;;9.38;;
7169;SDS011;3626;42.656;23.312;2023-07-16T00:28:00;15.57;;;9.33;;
7169;SDS011;3626;42.656;23.312;2023-07-16T00:28:07;16.64;;;9.38;;
7169;SDS011;3626;42.656;23.312;2023-07-16T00:28:13;16.88;;;9.32;;
7169;SDS011;3626;42.656;23.312;2023-07-16T00:28:19;16.80;;;9.38;;
7169;SDS011;3626;42.656;23.312;2023-07-16T00:28:25;15.95;;;9.25;;
7169;SDS011;3626;42.656;23.312;2023-07-16T00:28:30;15.93;;;9.40;;
7169;SDS011;3626;42.656;23.312;2023-07-16T00:28:36;16.08;;;9.60;;
7169;SDS011;3626;42.656;23.312;2023-07-16T00:28:42;16.33;;;9.55;;
7169;SDS011;3626;42.656;23.312;2023-07-16T00:28:47;16.40;;;9.43;;
7169;SDS011;3626;42.656;23.312;2023-07-16T00:28:53;16.27;;;9.30;;
7169;SDS011;3626;42.656;23.312;2023-07-16T00:28:59;16.48;;;9.38;;
7169;SDS011;3626;42.656;23.312;2023-07-16T00:29:05;15.40;;;9.32;;
7169;SDS011;3626;42.656;23.312;2023-07-16T00:29:10;15.13;;;9.40;;
7169;SDS011;3626;42.656;23.312;2023-07-16T00:29:16;14.90;;;9.30;;
7169;SDS011;3626;42.656;23.312;2023-07-16T00:29:22;15.00;;;9.33;;
7169;SDS011;3626;42.656;23.312;2023-07-16T00:29:27;15.25;;;9.30;;
7169;SDS011;3626;42.656;23.312;2023-07-16T00:29:33;15.77;;;9.23;;
7169;SDS011;3626;42.656;23.312;2023-07-16T00:29:39;15.88;;;9.38;;
7169;SDS011;3626;42.656;23.312;2023-07-16T00:29:44;16.40;;;9.70;;
7169;SDS011;3626;42.656;23.312;2023-07-16T00:29:51;16.70;;;9.70;;
7169;SDS011;3626;42.656;23.312;2023-07-16T00:29:57;16.17;;;9.52;;
7169;SDS011;3626;42.656;23.312;2023-07-16T00:30:03;15.73;;;9.30;;
7169;SDS011;3626;42.656;23.312;2023-07-16T00:30:09;15.92;;;9.48;;
7169;SDS011;3626;42.656;23.312;2023-07-16T00:30:15;16.23;;;9.57;;
7169;SDS011;3626;42.656;23.312;2023-07-16T00:30:21;17.58;;;9.45;;
7169;SDS011;3626;42.656;23.312;2023-07-16T00:30:27;17.63;;;9.33;;
7169;SDS011;3626;42.656;23.312;2023-07-16T00:30:32;17.15;;;9.27;;
7169;SDS011;3626;42.656;23.312;2023-07-16T00:30:38;17.00;;;9.18;;
7169;SDS011;3626;42.656;23.312;2023-07-16T00:30:44;17.33;;;8.93;;
7169;SDS011;3626;42.656;23.312;2023-07-16T00:30:49;17.08;;;9.00;;
7169;SDS011;3626;42.656;23.312;2023-07-16T00:30:55;16.98;;;8.90;;
7169;SDS011;3626;42.656;23.312;2023-07-16T00:31:01;16.43;;;8.97;;
7169;SDS011;3626;42.656;23.312;2023-07-16T00:31:06;16.27;;;9.20;;
7169;SDS011;3626;42.656;23.312;2023-07-16T00:31:12;16.10;;;9.20;;
7169;SDS011;3626;42.656;23.312;2023-07-16T00:31:18;15.50;;;9.20;;
7169;SDS011;3626;42.656;23.312;2023-07-16T00:31:24;15.13;;;9.20;;
7169;SDS011;3626;42.656;23.312;2023-07-16T00:31:30;15.03;;;9.30;;
7169;SDS011;3626;42.656;23.312;2023-07-16T00:31:36;15.65;;;9.32;;
7169;SDS011;3626;42.656;23.312;2023-07-16T00:31:42;15.73;;;9.40;;
7169;SDS011;3626;42.656;23.312;2023-07-16T00:31:50;15.30;;;9.40;;
7169;SDS011;3626;42.656;23.312;2023-07-16T00:31:57;16.20;;;9.90;;
7169;SDS011;3626;42.656;23.312;2023-07-16T00:32:03;15.98;;;9.75;;
7169;SDS011;3626;42.656;23.312;2023-07-16T00:32:09;15.73;;;9.52;;
7169;SDS011;3626;42.656;23.312;2023-07-16T00:32:14;16.20;;;9.55;;
7169;SDS011;3626;42.656;23.312;2023-07-16T00:32:20;16.48;;;9.70;;
7169;SDS011;3626;42.656;23.312;2023-07-16T00:32:26;16.20;;;9.67;;
7169;SDS011;3626;42.656;23.312;2023-07-16T00:32:31;16.30;;;9.68;;
7169;SDS011;3626;42.656;23.312;2023-07-16T00:32:38;16.13;;;9.57;;
7169;SDS011;3626;42.656;23.312;2023-07-16T00:32:44;15.83;;;9.53;;
7169;SDS011;3626;42.656;23.312;2023-07-16T00:32:49;15.90;;;9.75;;
7169;SDS011;3626;42.656;23.312;2023-07-16T00:32:55;15.70;;;9.70;;
7169;SDS011;3626;42.656;23.312;2023-07-16T00:33:01;15.35;;;9.63;;
7169;SDS011;3626;42.656;23.312;2023-07-16T00:33:06;15.65;;;9.70;;
7169;SDS011;3626;42.656;23.312;2023-07-16T00:33:12;15.65;;;9.60;;
7169;SDS011;3626;42.656;23.312;2023-07-16T00:33:19;14.87;;;9.33;;
7169;SDS011;3626;42.656;23.312;2023-07-16T00:33:25;14.70;;;9.40;;
7169;SDS011;3626;42.656;23.312;2023-07-16T00:33:30;13.95;;;9.30;;
7169;SDS011;3626;42.656;23.312;2023-07-16T00:33:36;13.20;;;9.27;;
7169;SDS011;3626;42.656;23.312;2023-07-16T00:33:42;13.13;;;9.23;;
7169;SDS011;3626;42.656;23.312;2023-07-16T00:33:48;13.00;;;9.00;;
7169;SDS011;3626;42.656;23.312;2023-07-16T00:33:54;12.45;;;8.73;;
7169;SDS011;3626;42.656;23.312;2023-07-16T00:33:59;12.32;;;8.63;;
7169;SDS011;3626;42.656;23.312;2023-07-16T00:34:05;11.80;;;8.53;;
7169;SDS011;3626;42.656;23.312;2023-07-16T00:34:11;11.55;;;8.50;;
7169;SDS011;3626;42.656;23.312;2023-07-16T00:34:18;11.22;;;8.58;;
7169;SDS011;3626;42.656;23.312;2023-07-16T00:34:23;12.60;;;8.98;;
7169;SDS011;3626;42.656;23.312;2023-07-16T00:34:29;14.27;;;9.27;;
7169;SDS011;3626;42.656;23.312;2023-07-16T00:34:35;16.48;;;9.55;;
7169;SDS011;3626;42.656;23.312;2023-07-16T00:34:40;18.35;;;9.48;;
7169;SDS011;3626;42.656;23.312;2023-07-16T00:34:46;19.63;;;9.43;;
7169;SDS011;3626;42.656;23.312;2023-07-16T00:34:52;20.40;;;9.68;;
7169;SDS011;3626;42.656;23.312;2023-07-16T00:34:58;21.05;;;9.75;;
7169;SDS011;3626;42.656;23.312;2023-07-16T00:35:05;21.36;;;9.86;;
7169;SDS011;3626;42.656;23.312;2023-07-16T00:35:11;21.73;;;10.07;;
7169;SDS011;3626;42.656;23.312;2023-07-16T00:35:17;22.00;;;10.15;;
7169;SDS011;3626;42.656;23.312;2023-07-16T00:35:23;21.42;;;9.95;;
7169;SDS011;3626;42.656;23.312;2023-07-16T00:35:28;20.43;;;9.77;;
7169;SDS011;3626;42.656;23.312;2023-07-16T00:35:34;18.15;;;9.60;;
7169;SDS011;3626;42.656;23.312;2023-07-16T00:35:46;16.92;;;9.68;;